Latest Weather Observations for Melville Water

IDW60901

Issued at 3:31 pm WST Tuesday 17 October 2017 (issued every 10 minutes, with the page automatically refreshed every 10 minutes)

About weather observations | Map of Perth area stations | Latest observations for Perth area | Other Formats
Station Details ID: 009091 Name: INNER DOLPHIN PYLON Lat: -31.99 Lon: 115.83 Height: 0.0 m
Data from the previous 72 hours. | See also: Recent months at Melville Water
Date/Time
WST
Temp
°C
App
Temp
°C
Dew
Point
°C
Rel
Hum
%
Delta-T
°C
Wind Press
QNH
hPa
Press
MSL
hPa
Rain since
9am
mm
Dir  Spd
km/h
Gust
km/h
Spd
kts
Gust
kts
17/03:30pm - - - - - WNW 28 39 15 21 - - -
17/03:00pm - - - - - WNW 26 41 14 22 - - -
17/02:30pm - - - - - NW 28 41 15 22 - - -
17/02:00pm - - - - - NNW 24 33 13 18 - - -
17/01:30pm - - - - - W 26 35 14 19 - - -
17/01:23pm - - - - - W 30 48 16 26 - - -
17/01:13pm - - - - - W 37 52 20 28 - - -
17/01:00pm - - - - - WNW 35 48 19 26 - - -
17/12:53pm - - - - - NW 28 48 15 26 - - -
17/12:30pm - - - - - W 28 41 15 22 - - -
17/12:00pm - - - - - WNW 28 41 15 22 - - -
17/11:38am - - - - - WNW 28 46 15 25 - - -
17/11:30am - - - - - WNW 28 39 15 21 - - -
17/11:00am - - - - - W 32 44 17 24 - - -
17/10:30am - - - - - WNW 24 37 13 20 - - -
17/10:00am - - - - - W 30 39 16 21 - - -
17/09:30am - - - - - W 22 33 12 18 - - -
17/09:00am - - - - - W 20 30 11 16 - - -
17/08:30am - - - - - W 20 28 11 15 - - -
17/08:00am - - - - - W 28 39 15 21 - - -
17/07:30am - - - - - W 19 24 10 13 - - -
17/07:00am - - - - - WNW 22 33 12 18 - - -
17/06:30am - - - - - WSW 20 30 11 16 - - -
17/06:00am - - - - - WSW 17 24 9 13 - - -
17/05:30am - - - - - WSW 17 22 9 12 - - -
17/05:00am - - - - - WSW 17 22 9 12 - - -
17/04:30am - - - - - SW 22 30 12 16 - - -
17/04:00am - - - - - WSW 20 30 11 16 - - -
17/03:30am - - - - - WSW 20 30 11 16 - - -
17/03:00am - - - - - WSW 24 35 13 19 - - -
17/02:30am - - - - - WSW 28 37 15 20 - - -
17/02:00am - - - - - W 22 33 12 18 - - -
17/01:30am - - - - - WSW 28 35 15 19 - - -
17/01:00am - - - - - W 24 32 13 17 - - -
17/12:30am - - - - - W 26 37 14 20 - - -
17/12:00am - - - - - W 30 44 16 24 - - -
 
Date/Time
WST
Temp
°C
App
Temp
°C
Dew
Point
°C
Rel
Hum
%
Delta-T
°C
Wind Press
QNH
hPa
Press
MSL
hPa
Rain since
9am
mm
Dir  Spd
km/h
Gust
km/h
Spd
kts
Gust
kts
16/11:30pm - - - - - W 30 43 16 23 - - -
16/11:00pm - - - - - W 28 41 15 22 - - -
16/10:40pm - - - - - W 28 48 15 26 - - -
16/10:30pm - - - - - WNW 28 43 15 23 - - -
16/10:00pm - - - - - WNW 30 46 16 25 - - -
16/09:37pm - - - - - WNW 28 50 15 27 - - -
16/09:30pm - - - - - WNW 28 43 15 23 - - -
16/09:00pm - - - - - NW 33 52 18 28 - - -
16/08:30pm - - - - - NW 35 63 19 34 - - -
16/08:00pm - - - - - NW 44 65 24 35 - - -
16/07:30pm - - - - - NW 39 59 21 32 - - -
16/07:02pm - - - - - NW 39 61 21 33 - - -
16/07:00pm - - - - - NW 39 54 21 29 - - -
16/06:30pm - - - - - NW 37 56 20 30 - - -
16/06:00pm - - - - - NW 46 70 25 38 - - -
16/05:30pm - - - - - NW 39 57 21 31 - - -
16/05:00pm - - - - - NW 43 63 23 34 - - -
16/04:30pm - - - - - NW 39 59 21 32 - - -
16/04:02pm - - - - - WNW 33 59 18 32 - - -
16/04:00pm - - - - - WNW 33 50 18 27 - - -
16/03:30pm - - - - - NW 39 57 21 31 - - -
16/03:00pm - - - - - NW 37 63 20 34 - - -
16/02:30pm - - - - - WNW 37 57 20 31 - - -
16/02:00pm - - - - - NW 39 61 21 33 - - -
16/01:30pm - - - - - WNW 37 56 20 30 - - -
16/01:06pm - - - - - WNW 39 57 21 31 - - -
16/01:00pm - - - - - WNW 41 57 22 31 - - -
16/12:30pm - - - - - WNW 41 61 22 33 - - -
16/12:00pm - - - - - WNW 37 57 20 31 - - -
16/11:30am - - - - - WNW 41 65 22 35 - - -
16/11:00am - - - - - NW 41 59 22 32 - - -
16/10:30am - - - - - WNW 35 56 19 30 - - -
16/10:00am - - - - - WNW 33 52 18 28 - - -
16/09:35am - - - - - WNW 28 46 15 25 - - -
16/09:30am - - - - - WNW 26 46 14 25 - - -
16/09:02am - - - - - WNW 28 46 15 25 - - -
16/09:00am - - - - - WNW 30 46 16 25 - - -
16/08:35am - - - - - WNW 30 48 16 26 - - -
16/08:30am - - - - - WNW 33 48 18 26 - - -
16/08:19am - - - - - WNW 28 52 15 28 - - -
16/08:00am - - - - - WNW 26 44 14 24 - - -
16/07:30am - - - - - NNW 26 41 14 22 - - -
16/07:00am - - - - - N 30 43 16 23 - - -
16/06:30am - - - - - NNE 24 30 13 16 - - -
16/06:00am - - - - - NNE 26 33 14 18 - - -
16/05:30am - - - - - NNE 22 30 12 16 - - -
16/05:00am - - - - - N 22 30 12 16 - - -
16/04:30am - - - - - NNE 19 28 10 15 - - -
16/04:00am - - - - - NNE 20 26 11 14 - - -
16/03:30am - - - - - N 20 26 11 14 - - -
16/03:00am - - - - - NNE 19 26 10 14 - - -
16/02:30am - - - - - N 17 20 9 11 - - -
16/02:00am - - - - - N 15 19 8 10 - - -
16/01:30am - - - - - N 15 22 8 12 - - -
16/01:00am - - - - - N 13 19 7 10 - - -
16/12:30am - - - - - N 11 15 6 8 - - -
16/12:00am - - - - - NW 7 11 4 6 - - -
 
Date/Time
WST
Temp
°C
App
Temp
°C
Dew
Point
°C
Rel
Hum
%
Delta-T
°C
Wind Press
QNH
hPa
Press
MSL
hPa
Rain since
9am
mm
Dir  Spd
km/h
Gust
km/h
Spd
kts
Gust
kts
15/11:30pm - - - - - NW 6 9 3 5 - - -
15/11:00pm - - - - - WNW 7 11 4 6 - - -
15/10:30pm - - - - - W 9 15 5 8 - - -
15/10:00pm - - - - - W 7 11 4 6 - - -
15/09:30pm - - - - - WNW 7 11 4 6 - - -
15/09:00pm - - - - - W 9 13 5 7 - - -
15/08:30pm - - - - - SW 13 17 7 9 - - -
15/08:00pm - - - - - WSW 19 26 10 14 - - -
15/07:30pm - - - - - SW 13 17 7 9 - - -
15/07:00pm - - - - - SW 15 17 8 9 - - -
15/06:30pm - - - - - SW 15 19 8 10 - - -
15/06:00pm - - - - - SSW 15 19 8 10 - - -
15/05:30pm - - - - - SSW 13 17 7 9 - - -
15/05:00pm - - - - - SSW 19 22 10 12 - - -
15/04:30pm - - - - - SW 19 26 10 14 - - -
15/04:00pm - - - - - SW 20 26 11 14 - - -
15/03:30pm - - - - - SW 19 24 10 13 - - -
15/03:00pm - - - - - WSW 22 26 12 14 - - -
15/02:30pm - - - - - SW 19 24 10 13 - - -
15/02:00pm - - - - - SW 20 24 11 13 - - -
15/01:30pm - - - - - SW 17 24 9 13 - - -
15/01:00pm - - - - - SW 17 20 9 11 - - -
15/12:30pm - - - - - SW 15 19 8 10 - - -
15/12:00pm - - - - - SW 19 22 10 12 - - -
15/11:30am - - - - - SSW 17 20 9 11 - - -
15/11:00am - - - - - SSW 11 17 6 9 - - -
15/10:30am - - - - - SW 15 19 8 10 - - -
15/10:00am - - - - - SW 15 22 8 12 - - -
15/09:30am - - - - - WSW 15 20 8 11 - - -
15/09:00am - - - - - WNW 6 9 3 5 - - -
15/08:30am - - - - - NE 4 6 2 3 - - -
15/08:00am - - - - - NE 6 9 3 5 - - -
15/07:30am - - - - - NNE 4 6 2 3 - - -
15/07:00am - - - - - NNE 6 7 3 4 - - -
15/06:30am - - - - - NE 6 9 3 5 - - -
15/06:00am - - - - - SW 4 9 2 5 - - -
15/05:30am - - - - - WNW 4 7 2 4 - - -
15/05:00am - - - - - W 7 9 4 5 - - -
15/04:30am - - - - - WNW 7 11 4 6 - - -
15/04:00am - - - - - W 6 9 3 5 - - -
15/03:30am - - - - - WNW 6 7 3 4 - - -
15/03:00am - - - - - WNW 6 9 3 5 - - -
15/02:30am - - - - - NNW 4 7 2 4 - - -
15/02:00am - - - - - NNW 6 11 3 6 - - -
15/01:30am - - - - - NNW 7 9 4 5 - - -
15/01:00am - - - - - NW 4 9 2 5 - - -
15/12:30am - - - - - WSW 6 9 3 5 - - -
15/12:00am - - - - - W 9 11 5 6 - - -
 
Date/Time
WST
Temp
°C
App
Temp
°C
Dew
Point
°C
Rel
Hum
%
Delta-T
°C
Wind Press
QNH
hPa
Press
MSL
hPa
Rain since
9am
mm
Dir  Spd
km/h
Gust
km/h
Spd
kts
Gust
kts
14/11:30pm - - - - - W 7 11 4 6 - - -
14/11:00pm - - - - - SW 7 9 4 5 - - -
14/10:30pm - - - - - W 11 15 6 8 - - -
14/10:00pm - - - - - WSW 13 19 7 10 - - -
14/09:30pm - - - - - SW 13 17 7 9 - - -
14/09:00pm - - - - - WSW 11 13 6 7 - - -
14/08:30pm - - - - - SW 9 11 5 6 - - -
14/08:00pm - - - - - WSW 11 13 6 7 - - -
14/07:30pm - - - - - WSW 11 15 6 8 - - -
14/07:00pm - - - - - SSW 11 15 6 8 - - -
14/06:30pm - - - - - SW 15 19 8 10 - - -
14/06:00pm - - - - - SSW 17 19 9 10 - - -
14/05:30pm - - - - - SSW 19 20 10 11 - - -
14/05:00pm - - - - - SW 20 26 11 14 - - -
14/04:30pm - - - - - SW 22 28 12 15 - - -
14/04:00pm - - - - - SW 26 32 14 17 - - -

Latest Capital City Observations: Canberra | Sydney | Melbourne | Brisbane | Adelaide | Perth | Hobart | Darwin

Other Formats:

Comma delimited format used in spreadsheet applications
http://www.bom.gov.au/fwo/IDW60901/IDW60901.95620.axf

JavaScript Object Notation format (JSON) in row-major order
http://www.bom.gov.au/fwo/IDW60901/IDW60901.95620.json